createdAt,value
2019-06-07T00:00:40.082Z,0.00
2019-06-07T00:01:35.947Z,0.00
2019-06-07T00:02:36.021Z,0.00
2019-06-07T00:03:35.979Z,0.00
2019-06-07T00:04:35.978Z,0.00
2019-06-07T00:05:35.926Z,0.00
2019-06-07T00:06:35.935Z,0.00
2019-06-07T00:07:35.888Z,0.00
2019-06-07T00:08:35.902Z,0.00
2019-06-07T00:09:35.868Z,0.00
2019-06-07T00:10:37.134Z,0.00
2019-06-07T00:11:35.889Z,0.00
2019-06-07T00:12:35.837Z,0.00
2019-06-07T00:13:35.867Z,0.00
2019-06-07T00:14:35.806Z,0.00
2019-06-07T00:15:35.820Z,0.00
2019-06-07T00:16:35.824Z,0.00
2019-06-07T00:17:35.833Z,0.00
2019-06-07T00:18:35.773Z,0.00
2019-06-07T00:19:35.817Z,0.00
2019-06-07T00:20:35.755Z,0.00
2019-06-07T00:22:13.678Z,0.00
2019-06-07T00:22:36.744Z,0.00
2019-06-07T00:23:35.708Z,0.00
2019-06-07T00:24:35.912Z,0.00
2019-06-07T00:25:35.704Z,0.00
2019-06-07T00:26:56.419Z,0.00
2019-06-07T00:27:36.679Z,0.00
2019-06-07T00:28:35.674Z,0.00
2019-06-07T00:29:35.648Z,0.00
2019-06-07T00:30:50.174Z,0.00
2019-06-07T00:31:36.655Z,0.00
2019-06-07T00:32:35.613Z,0.00
2019-06-07T00:33:35.613Z,0.00
2019-06-07T00:34:35.596Z,0.00
2019-06-07T00:35:35.624Z,0.00
2019-06-07T00:36:35.595Z,0.00
2019-06-07T00:37:35.596Z,0.00
2019-06-07T00:38:35.563Z,0.00
2019-06-07T00:39:35.574Z,0.00
2019-06-07T00:40:35.549Z,0.00
2019-06-07T00:41:35.526Z,0.00
2019-06-07T00:42:35.503Z,0.00
2019-06-07T00:43:35.505Z,0.00
2019-06-07T00:44:35.503Z,0.00
2019-06-07T00:45:35.481Z,0.00
2019-06-07T00:46:35.477Z,0.00
2019-06-07T00:47:35.527Z,0.00
2019-06-07T00:48:35.445Z,0.00
2019-06-07T00:49:41.090Z,0.00
2019-06-07T00:50:36.431Z,0.00
2019-06-07T00:51:49.926Z,0.00
2019-06-07T00:53:36.391Z,0.00
2019-06-07T00:54:35.413Z,0.00
2019-06-07T00:55:35.375Z,0.00
2019-06-07T00:56:35.356Z,0.00
2019-06-07T00:57:35.371Z,0.00
2019-06-07T00:58:35.367Z,0.00
2019-06-07T00:59:35.324Z,0.00
2019-06-07T01:00:35.415Z,0.00
2019-06-07T01:01:35.317Z,0.00
2019-06-07T01:02:35.328Z,0.00
2019-06-07T01:03:35.305Z,0.00
2019-06-07T01:04:35.315Z,0.00
2019-06-07T01:05:35.301Z,0.00
2019-06-07T01:06:35.262Z,0.00
2019-06-07T01:07:35.262Z,0.00
2019-06-07T01:08:35.238Z,0.00
2019-06-07T01:09:35.231Z,0.00
2019-06-07T01:10:52.200Z,0.00
2019-06-07T01:11:36.211Z,0.00
2019-06-07T01:12:35.252Z,0.00
2019-06-07T01:13:35.179Z,0.00
2019-06-07T01:14:35.244Z,0.00
2019-06-07T01:15:35.173Z,0.00
2019-06-07T01:16:55.253Z,0.00
2019-06-07T01:17:59.702Z,0.00
2019-06-07T01:18:42.846Z,0.00
2019-06-07T01:19:36.128Z,0.00
2019-06-07T01:20:35.103Z,0.00
2019-06-07T01:21:35.180Z,0.00
2019-06-07T01:22:35.123Z,0.00
2019-06-07T01:24:05.346Z,0.00
2019-06-07T01:24:36.125Z,0.00
2019-06-07T01:25:35.052Z,0.00
2019-06-07T01:26:35.078Z,0.00
2019-06-07T01:27:35.088Z,0.00
2019-06-07T01:28:35.066Z,0.00
2019-06-07T01:29:35.080Z,0.00
2019-06-07T01:30:35.013Z,0.00
2019-06-07T01:31:35.048Z,0.00
2019-06-07T01:32:35.001Z,0.00
2019-06-07T01:33:50.346Z,0.00
2019-06-07T01:34:35.959Z,0.00
2019-06-07T01:35:34.993Z,0.00
2019-06-07T01:36:34.934Z,0.00
2019-06-07T01:37:34.927Z,0.00
2019-06-07T01:38:34.916Z,0.00
2019-06-07T01:39:34.900Z,0.00
2019-06-07T01:40:34.885Z,0.00
2019-06-07T01:41:34.884Z,0.00
2019-06-07T01:42:34.901Z,0.00
2019-06-07T01:43:34.855Z,0.00
2019-06-07T01:44:34.859Z,0.00
2019-06-07T01:45:34.869Z,0.00
2019-06-07T01:46:34.821Z,0.00
2019-06-07T01:47:34.817Z,0.00
2019-06-07T01:48:49.150Z,0.00
2019-06-07T01:49:35.824Z,0.00
2019-06-07T01:50:34.795Z,0.00
2019-06-07T01:51:35.485Z,0.00
2019-06-07T01:52:34.764Z,0.00
2019-06-07T01:53:34.744Z,0.00
2019-06-07T01:54:55.939Z,0.00
2019-06-07T01:55:35.725Z,0.00
2019-06-07T01:56:34.739Z,0.00
2019-06-07T01:57:47.387Z,0.00
2019-06-07T01:58:35.690Z,0.00
2019-06-07T01:59:34.726Z,0.00
2019-06-07T02:00:34.684Z,0.00
2019-06-07T02:01:35.430Z,0.00
2019-06-07T02:02:34.681Z,0.00
2019-06-07T02:03:34.632Z,0.00
2019-06-07T02:04:34.630Z,0.00
2019-06-07T02:05:34.626Z,0.00
2019-06-07T02:06:34.631Z,0.00
2019-06-07T02:07:34.647Z,0.00
2019-06-07T02:08:34.645Z,0.00
2019-06-07T02:09:34.575Z,0.00
2019-06-07T02:10:34.566Z,0.00
2019-06-07T02:11:34.600Z,0.00
2019-06-07T02:12:42.928Z,0.00
2019-06-07T02:13:35.527Z,0.00
2019-06-07T02:14:34.559Z,0.00
2019-06-07T02:15:36.764Z,0.00
2019-06-07T02:16:34.494Z,0.00
2019-06-07T02:17:34.584Z,0.00
2019-06-07T02:18:35.122Z,0.00
2019-06-07T02:19:34.526Z,0.00
2019-06-07T02:20:34.796Z,0.00
2019-06-07T02:21:34.785Z,0.00
2019-06-07T02:22:34.507Z,0.00
2019-06-07T02:23:34.426Z,0.00
2019-06-07T02:24:35.984Z,0.00
2019-06-07T02:25:42.531Z,0.00
2019-06-07T02:26:35.414Z,0.00
2019-06-07T02:27:34.482Z,0.00
2019-06-07T02:28:44.678Z,0.00
2019-06-07T02:29:35.369Z,0.00
2019-06-07T02:30:43.988Z,0.00
2019-06-07T02:31:39.116Z,0.00
2019-06-07T02:32:36.790Z,0.00
2019-06-07T02:33:40.012Z,0.00
2019-06-07T02:34:39.086Z,0.00
2019-06-07T02:35:40.720Z,0.00
2019-06-07T02:36:41.321Z,0.00
2019-06-07T02:37:37.041Z,0.00
2019-06-07T02:38:37.276Z,0.00
2019-06-07T02:39:38.053Z,0.00
2019-06-07T02:40:37.382Z,0.00
2019-06-07T02:41:38.762Z,0.00
2019-06-07T02:42:41.768Z,0.00
2019-06-07T02:43:37.077Z,4.00
2019-06-07T02:44:38.965Z,4.00
2019-06-07T02:45:42.571Z,4.00
2019-06-07T02:46:45.869Z,4.00
2019-06-07T02:47:37.970Z,4.00
2019-06-07T02:48:39.883Z,4.00
2019-06-07T02:49:40.954Z,4.00
2019-06-07T02:50:38.273Z,8.00
2019-06-07T02:51:41.142Z,4.00
2019-06-07T02:52:40.334Z,8.00
2019-06-07T02:53:40.040Z,8.00
2019-06-07T02:54:39.770Z,8.00
2019-06-07T02:56:26.245Z,12.00
2019-06-07T02:56:48.839Z,12.00
2019-06-07T02:57:36.972Z,16.00
2019-06-07T02:58:41.260Z,16.00
2019-06-07T03:00:03.147Z,20.00
2019-06-07T03:00:59.884Z,20.00
2019-06-07T03:01:41.164Z,20.00
2019-06-07T03:02:41.026Z,24.00
2019-06-07T03:03:39.594Z,28.00
2019-06-07T03:04:41.514Z,32.00
2019-06-07T03:05:38.800Z,36.00
2019-06-07T03:06:39.362Z,40.00
2019-06-07T03:07:39.010Z,40.00
2019-06-07T03:08:36.613Z,44.00
2019-06-07T03:09:36.422Z,48.00
2019-06-07T03:10:34.806Z,52.00
2019-06-07T03:11:36.063Z,56.00
2019-06-07T03:12:35.469Z,64.00
2019-06-07T03:13:35.015Z,68.00
2019-06-07T03:14:35.137Z,72.00
2019-06-07T03:15:44.662Z,80.00
2019-06-07T03:16:37.281Z,84.00
2019-06-07T03:17:36.499Z,88.00
2019-06-07T03:18:36.257Z,100.00
2019-06-07T03:19:37.304Z,104.00
2019-06-07T03:20:36.278Z,112.00
2019-06-07T03:21:36.227Z,120.00
2019-06-07T03:22:38.922Z,128.00
2019-06-07T03:23:36.187Z,136.00
2019-06-07T03:24:36.232Z,140.00
2019-06-07T03:25:37.084Z,152.00
2019-06-07T03:26:42.503Z,160.00
2019-06-07T03:27:43.515Z,164.00
2019-06-07T03:28:37.488Z,176.00
2019-06-07T03:29:36.047Z,184.00
2019-06-07T03:30:39.875Z,196.00
2019-06-07T03:31:41.698Z,204.00
2019-06-07T03:32:45.715Z,216.00
2019-06-07T03:33:41.505Z,220.00
2019-06-07T03:34:42.177Z,228.00
2019-06-07T03:35:36.828Z,236.00
2019-06-07T03:36:35.364Z,248.00
2019-06-07T03:37:39.979Z,260.00
2019-06-07T03:38:35.336Z,268.00
2019-06-07T03:39:34.366Z,280.00
2019-06-07T03:40:36.837Z,292.00
2019-06-07T03:41:43.778Z,300.00
2019-06-07T03:42:38.343Z,308.00
2019-06-07T03:43:36.647Z,316.00
2019-06-07T03:44:37.778Z,328.00
2019-06-07T03:45:36.013Z,340.00
2019-06-07T03:46:40.580Z,348.00
2019-06-07T03:47:36.487Z,356.00
2019-06-07T03:48:37.832Z,368.00
2019-06-07T03:49:38.305Z,384.00
2019-06-07T03:50:38.689Z,396.00
2019-06-07T03:51:35.655Z,412.00
2019-06-07T03:52:37.123Z,420.00
2019-06-07T03:53:36.539Z,440.00
2019-06-07T03:54:36.971Z,444.00
2019-06-07T03:55:37.740Z,456.00
2019-06-07T03:56:36.063Z,472.00
2019-06-07T03:58:24.762Z,484.00
2019-06-07T03:58:41.277Z,492.00
2019-06-07T03:59:37.582Z,504.00
2019-06-07T04:00:37.283Z,520.00
2019-06-07T04:01:35.563Z,536.00
2019-06-07T04:02:37.753Z,552.00
2019-06-07T04:03:43.605Z,560.00
2019-06-07T04:04:36.979Z,560.00
2019-06-07T04:05:38.620Z,544.00
2019-06-07T04:06:36.839Z,524.00
2019-06-07T04:07:36.933Z,520.00
2019-06-07T04:08:38.271Z,520.00
2019-06-07T04:09:37.216Z,524.00
2019-06-07T04:10:54.957Z,512.00
2019-06-07T04:11:35.175Z,504.00
2019-06-07T04:12:38.599Z,484.00
2019-06-07T04:13:37.483Z,460.00
2019-06-07T04:14:35.152Z,444.00
2019-06-07T04:15:36.071Z,440.00
2019-06-07T04:16:38.088Z,440.00
2019-06-07T04:17:36.453Z,448.00
2019-06-07T04:18:36.459Z,452.00
2019-06-07T04:19:38.233Z,456.00
2019-06-07T04:20:36.127Z,460.00
2019-06-07T04:21:35.147Z,468.00
2019-06-07T04:22:38.860Z,468.00
2019-06-07T04:23:37.982Z,464.00
2019-06-07T04:24:38.476Z,468.00
2019-06-07T04:25:37.162Z,476.00
2019-06-07T04:26:35.051Z,484.00
2019-06-07T04:27:35.527Z,496.00
2019-06-07T04:29:26.106Z,508.00
2019-06-07T04:29:59.757Z,520.00
2019-06-07T04:30:36.524Z,536.00
2019-06-07T04:31:34.479Z,552.00
2019-06-07T04:32:34.337Z,560.00
2019-06-07T04:33:35.013Z,572.00
2019-06-07T04:34:36.437Z,584.00
2019-06-07T04:35:34.809Z,592.00
2019-06-07T04:36:46.078Z,600.00
2019-06-07T04:37:36.142Z,608.00
2019-06-07T04:38:37.915Z,616.00
2019-06-07T04:39:37.792Z,632.00
2019-06-07T04:40:36.155Z,656.00
2019-06-07T04:41:33.664Z,672.00
2019-06-07T04:42:35.098Z,676.00
2019-06-07T04:43:35.513Z,680.00
2019-06-07T04:44:35.031Z,688.00
2019-06-07T04:45:40.196Z,692.00
2019-06-07T04:46:35.223Z,696.00
2019-06-07T04:47:36.757Z,700.00
2019-06-07T04:48:35.187Z,708.00
2019-06-07T04:49:37.262Z,712.00
2019-06-07T04:50:36.091Z,724.00
2019-06-07T04:51:34.059Z,728.00
2019-06-07T04:52:36.155Z,736.00
2019-06-07T04:53:35.280Z,744.00
2019-06-07T04:54:33.449Z,752.00
2019-06-07T04:55:34.143Z,768.00
2019-06-07T04:56:37.426Z,784.00
2019-06-07T04:57:35.428Z,800.00
2019-06-07T04:58:33.385Z,812.00
2019-06-07T05:00:09.444Z,824.00
2019-06-07T05:00:49.732Z,844.00
2019-06-07T05:01:34.864Z,864.00
2019-06-07T05:02:36.841Z,888.00
2019-06-07T05:03:37.060Z,904.00
2019-06-07T05:04:34.967Z,920.00
2019-06-07T05:05:34.464Z,936.00
2019-06-07T05:06:34.938Z,960.00
2019-06-07T05:07:34.610Z,992.00
2019-06-07T05:08:35.141Z,1020.00
2019-06-07T05:09:35.329Z,1036.00
2019-06-07T05:10:35.120Z,1048.00
2019-06-07T05:11:35.857Z,1048.00
2019-06-07T05:12:35.288Z,1044.00
2019-06-07T05:13:37.761Z,1032.00
2019-06-07T05:14:34.568Z,1028.00
2019-06-07T05:15:34.234Z,1068.00
2019-06-07T05:16:35.193Z,1088.00
2019-06-07T05:17:34.760Z,1112.00
2019-06-07T05:18:33.663Z,1104.00
2019-06-07T05:19:35.202Z,1072.00
2019-06-07T05:20:34.251Z,1044.00
2019-06-07T05:21:57.135Z,1024.00
2019-06-07T05:22:34.899Z,996.00
2019-06-07T05:24:37.670Z,932.00
2019-06-07T05:25:34.068Z,928.00
2019-06-07T05:26:33.056Z,932.00
2019-06-07T05:27:34.342Z,936.00
2019-06-07T05:28:32.670Z,944.00
2019-06-07T05:29:34.807Z,952.00
2019-06-07T05:31:04.716Z,960.00
2019-06-07T05:31:36.893Z,972.00
2019-06-07T05:32:34.974Z,980.00
2019-06-07T05:33:35.481Z,988.00
2019-06-07T05:34:34.067Z,1000.00
2019-06-07T05:35:33.108Z,1012.00
2019-06-07T05:36:36.661Z,1024.00
2019-06-07T05:37:33.898Z,1032.00
2019-06-07T05:38:33.475Z,1040.00
2019-06-07T05:39:36.358Z,1044.00
2019-06-07T05:40:33.018Z,1052.00
2019-06-07T05:41:34.163Z,1064.00
2019-06-07T05:42:34.554Z,1068.00
2019-06-07T05:43:35.097Z,1072.00
2019-06-07T05:44:34.107Z,1084.00
2019-06-07T05:45:32.505Z,1084.00
2019-06-07T05:46:33.812Z,1088.00
2019-06-07T05:47:39.996Z,1096.00
2019-06-07T05:48:34.145Z,1104.00
2019-06-07T05:49:32.928Z,1112.00
2019-06-07T05:50:41.401Z,1120.00
2019-06-07T05:51:34.739Z,1132.00
2019-06-07T05:52:33.233Z,1140.00
2019-06-07T05:53:32.887Z,1152.00
2019-06-07T05:54:35.067Z,1156.00
2019-06-07T05:55:32.720Z,1156.00
2019-06-07T05:56:33.318Z,1164.00
2019-06-07T05:57:36.054Z,1180.00
2019-06-07T05:58:33.115Z,1184.00
2019-06-07T05:59:33.735Z,1196.00
2019-06-07T06:00:34.694Z,1208.00
2019-06-07T06:01:58.941Z,1220.00
2019-06-07T06:02:50.338Z,1232.00
2019-06-07T06:03:35.011Z,1236.00
2019-06-07T06:04:33.729Z,1240.00
2019-06-07T06:05:36.421Z,1256.00
2019-06-07T06:06:33.901Z,1264.00
2019-06-07T06:07:32.038Z,1268.00
2019-06-07T06:08:32.028Z,1276.00
2019-06-07T06:09:31.990Z,1280.00
2019-06-07T06:10:32.005Z,1284.00
2019-06-07T06:11:45.715Z,1292.00
2019-06-07T06:12:38.232Z,1296.00
2019-06-07T06:13:34.097Z,1316.00
2019-06-07T06:14:31.937Z,1324.00
2019-06-07T06:15:42.313Z,1328.00
2019-06-07T06:16:32.924Z,1336.00
2019-06-07T06:17:31.907Z,1348.00
2019-06-07T06:18:31.906Z,1356.00
2019-06-07T06:19:32.012Z,1376.00
2019-06-07T06:20:33.149Z,1388.00
2019-06-07T06:21:32.886Z,1404.00
2019-06-07T06:22:31.860Z,1408.00
2019-06-07T06:23:31.850Z,1424.00
2019-06-07T06:24:31.837Z,1448.00
2019-06-07T06:25:33.831Z,1476.00
2019-06-07T06:26:31.837Z,1492.00
2019-06-07T06:28:32.804Z,1536.00
2019-06-07T06:29:31.859Z,1560.00
2019-06-07T06:30:31.796Z,1580.00
2019-06-07T06:31:31.786Z,1632.00
2019-06-07T06:32:56.811Z,1680.00
2019-06-07T06:33:34.832Z,1712.00
2019-06-07T06:34:31.722Z,1560.00
2019-06-07T06:35:31.746Z,720.00
2019-06-07T06:36:31.733Z,1456.00
2019-06-07T06:37:31.706Z,1472.00
2019-06-07T06:38:31.679Z,1488.00
2019-06-07T06:39:31.877Z,1508.00
2019-06-07T06:40:31.656Z,1520.00
2019-06-07T06:41:48.444Z,1532.00
2019-06-07T06:42:32.701Z,1556.00
2019-06-07T06:43:31.636Z,1568.00
2019-06-07T06:44:31.627Z,1584.00
2019-06-07T06:45:31.624Z,1588.00
2019-06-07T06:46:38.773Z,1612.00
2019-06-07T06:47:32.624Z,1640.00
2019-06-07T06:48:31.595Z,1660.00
2019-06-07T06:49:31.678Z,1672.00
2019-06-07T06:50:31.579Z,1696.00
2019-06-07T06:51:31.572Z,1704.00
2019-06-07T06:52:31.540Z,1724.00
2019-06-07T06:53:31.533Z,1736.00
2019-06-07T06:54:40.571Z,1756.00
2019-06-07T06:55:32.523Z,1772.00
2019-06-07T06:56:31.538Z,1776.00
2019-06-07T06:57:31.518Z,1792.00
2019-06-07T06:59:18.731Z,1744.00
2019-06-07T06:59:39.350Z,1812.00
2019-06-07T07:00:43.541Z,1824.00
2019-06-07T07:01:32.448Z,1820.00
2019-06-07T07:02:31.508Z,1832.00
2019-06-07T07:03:56.794Z,1836.00
2019-06-07T07:04:32.400Z,1848.00
2019-06-07T07:05:31.414Z,1856.00
2019-06-07T07:06:31.384Z,1868.00
2019-06-07T07:07:31.420Z,1880.00
2019-06-07T07:08:31.392Z,1884.00
2019-06-07T07:09:31.607Z,1892.00
2019-06-07T07:10:31.333Z,1888.00
2019-06-07T07:11:31.330Z,1908.00
2019-06-07T07:12:31.339Z,1912.00
2019-06-07T07:13:31.384Z,1928.00
2019-06-07T07:14:31.298Z,1916.00
2019-06-07T07:15:31.374Z,1928.00
2019-06-07T07:16:31.293Z,1960.00
2019-06-07T07:17:47.669Z,1936.00
2019-06-07T07:18:32.256Z,1944.00
2019-06-07T07:19:31.248Z,1964.00
2019-06-07T07:20:31.253Z,1976.00
2019-06-07T07:21:31.214Z,1976.00
2019-06-07T07:22:31.221Z,1988.00
2019-06-07T07:23:31.248Z,2000.00
2019-06-07T07:24:31.183Z,2008.00
2019-06-07T07:25:31.219Z,2016.00
2019-06-07T07:26:31.159Z,2024.00
2019-06-07T07:27:31.187Z,2036.00
2019-06-07T07:28:31.144Z,2052.00
2019-06-07T07:29:31.136Z,2068.00
2019-06-07T07:30:36.735Z,2068.00
2019-06-07T07:31:32.118Z,2084.00
2019-06-07T07:32:31.103Z,2092.00
2019-06-07T07:34:20.584Z,2096.00
2019-06-07T07:34:36.692Z,2112.00
2019-06-07T07:35:32.105Z,2132.00
2019-06-07T07:36:39.222Z,2140.00
2019-06-07T07:37:32.079Z,2128.00
2019-06-07T07:38:31.068Z,2160.00
2019-06-07T07:39:31.092Z,2160.00
2019-06-07T07:41:32.009Z,2204.00
2019-06-07T07:42:31.021Z,2204.00
2019-06-07T07:43:31.553Z,2176.00
2019-06-07T07:44:30.999Z,2196.00
2019-06-07T07:45:30.965Z,2208.00
2019-06-07T07:46:30.975Z,2244.00
2019-06-07T07:47:30.946Z,2228.00
2019-06-07T07:48:30.969Z,2252.00
2019-06-07T07:49:30.916Z,2268.00
2019-06-07T07:50:31.025Z,2284.00
2019-06-07T07:51:30.976Z,2268.00
2019-06-07T07:52:30.890Z,2304.00
2019-06-07T07:53:47.811Z,2308.00
2019-06-07T07:54:31.872Z,2324.00
2019-06-07T07:55:30.923Z,2360.00
2019-06-07T07:56:30.844Z,2372.00
2019-06-07T07:57:30.844Z,2384.00
2019-06-07T07:58:30.828Z,2396.00
2019-06-07T07:59:41.988Z,2408.00
2019-06-07T08:01:31.792Z,2452.00
2019-06-07T08:02:30.998Z,2508.00
2019-06-07T08:03:30.772Z,2612.00
2019-06-07T08:05:13.100Z,2692.00
2019-06-07T08:05:42.546Z,2736.00
2019-06-07T08:06:31.740Z,2880.00
2019-06-07T08:07:30.746Z,2880.00
2019-06-07T08:08:30.723Z,2840.00
2019-06-07T08:09:30.798Z,2756.00
2019-06-07T08:10:30.711Z,2652.00
2019-06-07T08:11:30.693Z,2592.00
2019-06-07T08:12:54.751Z,2648.00
2019-06-07T08:13:31.849Z,2632.00
2019-06-07T08:14:30.671Z,2628.00
2019-06-07T08:15:30.676Z,2624.00
2019-06-07T08:16:30.661Z,2640.00
2019-06-07T08:17:30.629Z,2656.00
2019-06-07T08:18:30.675Z,2680.00
2019-06-07T08:19:30.610Z,2692.00
2019-06-07T08:20:30.610Z,2708.00
2019-06-07T08:21:30.666Z,2740.00
2019-06-07T08:22:30.604Z,2792.00
2019-06-07T08:23:30.622Z,2736.00
2019-06-07T08:24:30.611Z,2780.00
2019-06-07T08:25:30.583Z,2744.00
2019-06-07T08:26:30.549Z,2784.00
2019-06-07T08:27:30.525Z,2812.00
2019-06-07T08:28:30.643Z,2812.00
2019-06-07T08:29:44.188Z,2832.00
2019-06-07T08:30:50.661Z,2868.00
2019-06-07T08:31:31.477Z,2880.00
2019-06-07T08:32:30.882Z,2912.00
2019-06-07T08:33:30.483Z,2912.00
2019-06-07T08:34:30.468Z,2920.00
2019-06-07T08:36:03.589Z,2956.00
2019-06-07T08:36:42.103Z,2944.00
2019-06-07T08:38:14.033Z,2944.00
2019-06-07T08:38:46.901Z,2944.00
2019-06-07T08:39:31.404Z,2940.00
2019-06-07T08:40:30.540Z,3004.00
2019-06-07T08:41:30.401Z,3012.00
2019-06-07T08:42:37.748Z,3028.00
2019-06-07T08:43:31.359Z,3056.00
2019-06-07T08:44:30.363Z,3068.00
2019-06-07T08:45:30.436Z,3108.00
2019-06-07T08:46:30.330Z,3088.00
2019-06-07T08:47:30.330Z,3092.00
2019-06-07T08:48:30.536Z,3104.00
2019-06-07T08:49:30.289Z,3148.00
2019-06-07T08:50:30.404Z,3112.00
2019-06-07T08:51:30.294Z,3184.00
2019-06-07T08:52:30.290Z,3176.00
2019-06-07T08:53:30.279Z,3212.00
2019-06-07T08:54:30.240Z,3196.00
2019-06-07T08:55:30.274Z,3224.00
2019-06-07T08:56:30.218Z,3240.00
2019-06-07T08:57:30.232Z,3240.00
2019-06-07T08:58:30.208Z,3228.00
2019-06-07T08:59:30.193Z,3232.00
2019-06-07T09:00:45.622Z,3272.00
2019-06-07T09:01:31.168Z,3292.00
2019-06-07T09:02:30.154Z,3300.00
2019-06-07T09:03:30.191Z,3244.00
2019-06-07T09:04:30.141Z,3248.00
2019-06-07T09:05:30.155Z,3336.00
2019-06-07T09:07:31.108Z,3384.00
2019-06-07T09:08:31.029Z,3380.00
2019-06-07T09:09:30.075Z,3388.00
2019-06-07T09:10:30.243Z,3400.00
2019-06-07T09:11:30.108Z,3424.00
2019-06-07T09:12:30.086Z,3468.00
2019-06-07T09:13:30.053Z,3492.00
2019-06-07T09:14:30.024Z,3516.00
2019-06-07T09:15:30.071Z,3512.00
2019-06-07T09:16:30.012Z,3520.00
2019-06-07T09:17:29.985Z,3464.00
2019-06-07T09:18:42.214Z,3540.00
2019-06-07T09:19:30.964Z,3576.00
2019-06-07T09:20:36.726Z,3556.00
2019-06-07T09:21:30.975Z,3492.00
2019-06-07T09:22:29.978Z,3600.00
2019-06-07T09:23:29.960Z,3556.00
2019-06-07T09:24:29.927Z,3612.00
2019-06-07T09:25:29.971Z,3504.00
2019-06-07T09:26:29.906Z,3628.00
2019-06-07T09:27:29.898Z,3648.00
2019-06-07T09:28:29.881Z,3676.00
2019-06-07T09:29:29.860Z,3660.00
2019-06-07T09:30:29.847Z,3704.00
2019-06-07T09:31:51.382Z,3704.00
2019-06-07T09:32:30.906Z,3732.00
2019-06-07T09:33:29.824Z,3772.00
2019-06-07T09:34:29.871Z,3772.00
2019-06-07T09:35:29.821Z,3764.00
2019-06-07T09:36:29.788Z,3796.00
2019-06-07T09:38:30.800Z,3844.00
2019-06-07T09:39:29.774Z,3832.00
2019-06-07T09:40:29.737Z,3888.00
2019-06-07T09:41:46.794Z,3908.00
2019-06-07T09:42:30.737Z,3900.00
2019-06-07T09:44:01.929Z,3936.00
2019-06-07T09:44:30.710Z,4020.00
2019-06-07T09:45:29.701Z,4044.00
2019-06-07T09:46:29.699Z,4032.00
2019-06-07T09:47:32.944Z,4016.00
2019-06-07T09:49:33.212Z,4048.00
2019-06-07T09:50:29.636Z,4140.00
2019-06-07T09:51:29.630Z,4376.00
2019-06-07T09:52:29.612Z,4444.00
2019-06-07T09:53:29.618Z,8056.00
2019-06-07T09:55:03.961Z,34784.00
2019-06-07T09:55:30.586Z,84064.00
2019-06-07T09:56:29.577Z,82464.00
2019-06-07T09:57:29.616Z,81856.00
2019-06-07T09:58:51.343Z,46656.00
2019-06-07T09:59:30.546Z,11084.00
2019-06-07T10:00:44.298Z,4480.00
2019-06-07T10:01:30.545Z,4528.00
2019-06-07T10:02:29.578Z,4520.00
2019-06-07T10:03:29.539Z,4280.00
2019-06-07T10:04:31.574Z,4204.00
2019-06-07T10:05:29.476Z,4140.00
2019-06-07T10:06:29.462Z,4100.00
2019-06-07T10:07:32.022Z,4076.00
2019-06-07T10:11:29.469Z,4108.00
2019-06-07T10:12:29.417Z,4120.00
2019-06-07T10:13:29.423Z,4096.00
2019-06-07T10:14:29.408Z,4088.00
2019-06-07T10:15:29.385Z,4072.00
2019-06-07T10:16:37.347Z,4120.00
2019-06-07T10:17:30.347Z,4108.00
2019-06-07T10:18:29.361Z,4072.00
2019-06-07T10:19:29.343Z,4040.00
2019-06-07T10:20:29.334Z,4016.00
2019-06-07T10:21:29.342Z,4040.00
2019-06-07T10:22:29.302Z,4016.00
2019-06-07T10:23:29.295Z,3932.00
2019-06-07T10:24:29.283Z,4012.00
2019-06-07T10:25:29.350Z,4020.00
2019-06-07T10:26:29.326Z,4056.00
2019-06-07T10:27:29.279Z,4040.00
2019-06-07T10:28:29.232Z,4000.00
2019-06-07T10:29:29.224Z,4072.00
2019-06-07T10:30:29.209Z,4056.00
2019-06-07T10:31:29.212Z,3968.00
2019-06-07T10:32:29.276Z,4044.00
2019-06-07T10:33:29.203Z,4040.00
2019-06-07T10:34:29.170Z,4036.00
2019-06-07T10:35:29.156Z,4044.00
2019-06-07T10:36:29.151Z,4068.00
2019-06-07T10:37:29.139Z,4076.00
2019-06-07T10:38:29.142Z,4076.00
2019-06-07T10:39:29.169Z,4084.00
2019-06-07T10:40:29.168Z,4108.00
2019-06-07T10:41:29.205Z,4188.00
2019-06-07T10:42:29.175Z,4012.00
2019-06-07T10:43:29.145Z,4136.00
2019-06-07T10:44:29.238Z,4144.00
2019-06-07T10:45:29.133Z,4140.00
2019-06-07T10:46:29.102Z,4192.00
2019-06-07T10:47:29.090Z,4212.00
2019-06-07T10:48:29.029Z,4196.00
2019-06-07T10:49:29.015Z,4212.00
2019-06-07T10:50:29.076Z,4148.00
2019-06-07T10:51:29.151Z,4180.00
2019-06-07T10:52:28.987Z,4184.00
2019-06-07T10:53:29.051Z,4184.00
2019-06-07T10:54:30.822Z,4164.00
2019-06-07T10:55:28.963Z,4196.00
2019-06-07T10:56:28.981Z,4100.00
2019-06-07T10:57:28.926Z,4200.00
2019-06-07T10:58:29.055Z,4164.00
2019-06-07T10:59:28.915Z,4216.00
2019-06-07T11:00:28.948Z,4232.00
2019-06-07T11:01:28.916Z,4248.00
2019-06-07T11:02:28.924Z,4240.00
2019-06-07T11:03:28.866Z,4220.00
2019-06-07T11:04:28.864Z,4164.00
2019-06-07T11:05:28.846Z,4080.00
2019-06-07T11:06:28.852Z,2796.00
2019-06-07T11:07:28.838Z,4128.00
2019-06-07T11:08:28.820Z,4168.00
2019-06-07T11:09:28.808Z,4144.00
2019-06-07T11:10:28.799Z,4100.00
2019-06-07T11:11:28.797Z,4176.00
2019-06-07T11:12:28.769Z,4044.00
2019-06-07T11:13:28.809Z,4168.00
2019-06-07T11:14:28.787Z,4212.00
2019-06-07T11:15:28.761Z,4236.00
2019-06-07T11:16:28.750Z,4228.00
2019-06-07T11:17:28.759Z,4224.00
2019-06-07T11:18:28.712Z,4248.00
2019-06-07T11:19:28.721Z,4296.00
2019-06-07T11:20:28.719Z,4400.00
2019-06-07T11:21:28.719Z,4352.00
2019-06-07T11:22:28.696Z,4288.00
2019-06-07T11:23:28.752Z,3012.00
2019-06-07T11:24:28.755Z,2988.00
2019-06-07T11:25:28.650Z,2844.00
2019-06-07T11:26:28.683Z,2860.00
2019-06-07T11:27:28.614Z,3048.00
2019-06-07T11:28:28.689Z,3120.00
2019-06-07T11:29:28.689Z,3112.00
2019-06-07T11:30:28.733Z,3060.00
2019-06-07T11:31:28.664Z,3100.00
2019-06-07T11:32:28.651Z,3048.00
2019-06-07T11:33:28.698Z,3040.00
2019-06-07T11:34:28.551Z,3056.00
2019-06-07T11:35:28.534Z,3076.00
2019-06-07T11:36:28.614Z,3576.00
2019-06-07T11:37:28.565Z,3392.00
2019-06-07T11:38:28.495Z,3484.00
2019-06-07T11:39:28.495Z,3568.00
2019-06-07T11:40:35.521Z,3520.00
2019-06-07T11:41:29.465Z,3420.00
2019-06-07T11:42:28.460Z,3308.00
2019-06-07T11:43:28.445Z,3436.00
2019-06-07T11:44:28.443Z,3576.00
2019-06-07T11:45:28.506Z,3380.00
2019-06-07T11:46:28.414Z,3520.00
2019-06-07T11:47:28.441Z,3556.00
2019-06-07T11:48:28.404Z,3520.00
2019-06-07T11:49:28.436Z,3544.00
2019-06-07T11:50:28.366Z,3428.00
2019-06-07T11:51:28.484Z,3480.00
2019-06-07T11:52:28.428Z,3528.00
2019-06-07T11:53:28.402Z,3416.00
2019-06-07T11:54:28.357Z,3528.00
2019-06-07T11:55:28.355Z,3444.00
2019-06-07T11:56:28.329Z,3636.00
2019-06-07T11:57:28.293Z,3648.00
2019-06-07T11:58:28.298Z,3696.00
2019-06-07T11:59:28.271Z,3668.00
2019-06-07T12:00:28.348Z,3392.00
2019-06-07T12:01:28.255Z,3472.00
2019-06-07T12:02:28.247Z,3680.00
2019-06-07T12:03:28.251Z,3680.00
2019-06-07T12:04:34.305Z,3612.00
2019-06-07T12:05:29.244Z,3704.00
2019-06-07T12:06:28.201Z,3640.00
2019-06-07T12:07:28.351Z,3708.00
2019-06-07T12:08:28.179Z,3648.00
2019-06-07T12:09:28.235Z,3664.00
2019-06-07T12:10:41.803Z,3656.00
2019-06-07T12:11:29.157Z,3704.00
2019-06-07T12:12:28.175Z,3672.00
2019-06-07T12:13:28.142Z,3600.00
2019-06-07T12:14:28.183Z,3652.00
2019-06-07T12:15:28.136Z,3668.00
2019-06-07T12:16:28.140Z,3624.00
2019-06-07T12:17:28.095Z,3684.00
2019-06-07T12:18:28.113Z,3680.00
2019-06-07T12:19:28.065Z,3688.00
2019-06-07T12:20:28.087Z,3640.00
2019-06-07T12:21:28.049Z,3652.00
2019-06-07T12:22:28.062Z,3652.00
2019-06-07T12:23:28.070Z,3616.00
2019-06-07T12:24:28.011Z,3664.00
2019-06-07T12:25:28.152Z,3656.00
2019-06-07T12:26:27.990Z,3636.00
2019-06-07T12:27:27.982Z,3672.00
2019-06-07T12:28:28.018Z,3724.00
2019-06-07T12:29:28.278Z,3704.00
2019-06-07T12:30:28.214Z,3728.00
2019-06-07T12:31:27.948Z,3700.00
2019-06-07T12:32:27.953Z,3652.00
2019-06-07T12:33:27.929Z,3712.00
2019-06-07T12:34:27.962Z,3672.00
2019-06-07T12:35:27.950Z,3680.00
2019-06-07T12:36:28.027Z,3712.00
2019-06-07T12:37:42.639Z,3724.00